»·PEaware :: AAL50 KPHX-KABQ

AAL50 :: KPHX-KABQ

FLIGHT INFORMATION

Flight Status: Arrived
Operator:
American Airlines
More flights by this operator :: More flights under this callsign
Pilot: Camron S. (27302)
Aircraft: AIRBUS A321
(A321)
More flights by this aircraft type
Origin: KPHX Phoenix Sky Harbor Intl
United States
Destination: KABQ Albuquerque Intl Sunport
United States
More flights between these airports :: More routes between these airports
Route: FORPE1 SJN TMALE BRRTO1
File this flight plan on PilotEdge
Remarks: RMK / SIMBRIEF
Altitude:
(Current/Filed)
33,000ft
Speed:
(Current/Filed)
446kts
Departed: 16-Sep-22 02:11 PM
Arrived: 16-Sep-22 02:55 PM
Distance/Time
Traveled:
285nm/0:44
Distance/Time
To Go:
Arrived

Flight Plot

Page will automatically refresh every two minutes.

Flight plan parsing failed; only flown route is shown


Map Options




Map Legend


Flown Route
Filed Route
Departure Airport
Arrival Airport
Navaid (VOR, NDB)
Fix

Horizontal Profiles

Position Reports

Time Latitude Longitude Heading Altitude Ground
Speed
16-Sep-22 13:58 33.437176 -111.999852 90 1132ft 0kts
16-Sep-22 13:58 33.437176 -111.999852 90 1132ft 0kts
16-Sep-22 13:59 33.437176 -111.999852 90 1132ft 0kts
16-Sep-22 14:01 33.437176 -111.999852 90 1132ft 0kts
16-Sep-22 14:02 33.437175 -111.999879 90 1132ft 2kts
16-Sep-22 14:03 33.436922 -112.000393 11 1131ft 2kts
16-Sep-22 14:03 33.436799 -112.000401 359 1131ft 0kts
16-Sep-22 14:04 33.436948 -112.000420 350 1131ft 5kts
16-Sep-22 14:05 33.439049 -112.002023 269 1133ft 19kts
16-Sep-22 14:07 33.439019 -112.012721 270 1128ft 35kts
16-Sep-22 14:07 33.439025 -112.022540 270 1121ft 33kts
16-Sep-22 14:08 33.439664 -112.029686 1 1118ft 5kts
16-Sep-22 14:09 33.440867 -112.028070 89 1118ft 33kts
16-Sep-22 14:10 33.440411 -111.978104 91 2775ft 194kts
16-Sep-22 14:11 33.436363 -111.905559 94 5509ft 251kts
16-Sep-22 14:12 33.453927 -111.821835 64 7552ft 283kts
16-Sep-22 14:13 33.491945 -111.734962 62 8040ft 297kts
16-Sep-22 14:14 33.529883 -111.645605 63 9472ft 303kts
16-Sep-22 14:15 33.569604 -111.550902 63 11051ft 344kts
16-Sep-22 14:16 33.615802 -111.440371 63 12028ft 398kts
16-Sep-22 14:17 33.667693 -111.315666 64 13671ft 427kts
16-Sep-22 14:18 33.717862 -111.183238 67 15640ft 443kts
16-Sep-22 14:19 33.764628 -111.051780 67 17622ft 454kts
16-Sep-22 14:20 33.814979 -110.910043 67 19403ft 469kts
16-Sep-22 14:21 33.866573 -110.764067 67 21230ft 479kts
16-Sep-22 14:22 33.919093 -110.614849 67 22825ft 491kts
16-Sep-22 14:23 33.972686 -110.461887 67 24449ft 498kts
16-Sep-22 14:24 34.025903 -110.309175 67 26381ft 494kts
16-Sep-22 14:25 34.078666 -110.156757 67 28022ft 490kts
16-Sep-22 14:26 34.131257 -110.005278 66 29478ft 487kts
16-Sep-22 14:27 34.183113 -109.855010 66 30758ft 485kts
16-Sep-22 14:28 34.234471 -109.704859 66 31859ft 484kts
16-Sep-22 14:29 34.285725 -109.554231 66 32707ft 487kts
16-Sep-22 14:30 34.337297 -109.401874 66 33227ft 491kts
16-Sep-22 14:31 34.388554 -109.249088 68 33237ft 491kts
16-Sep-22 14:32 34.420909 -109.087821 86 33234ft 502kts
16-Sep-22 14:33 34.421370 -108.917876 97 33238ft 507kts
16-Sep-22 14:34 34.418370 -108.747511 96 33237ft 507kts
16-Sep-22 14:35 34.431218 -108.577796 80 31844ft 509kts
16-Sep-22 14:36 34.471552 -108.414152 75 29269ft 509kts
16-Sep-22 14:37 34.513112 -108.249307 75 26314ft 510kts
16-Sep-22 14:38 34.554010 -108.084669 75 23263ft 507kts
16-Sep-22 14:39 34.593379 -107.925468 75 21706ft 468kts
16-Sep-22 14:40 34.632173 -107.784199 65 20960ft 423kts
16-Sep-22 14:41 34.685943 -107.659439 63 19180ft 411kts
16-Sep-22 14:42 34.740662 -107.530722 62 17048ft 447kts
16-Sep-22 14:43 34.798541 -107.396838 62 16103ft 445kts
16-Sep-22 14:44 34.853708 -107.267732 63 15329ft 402kts
16-Sep-22 14:45 34.898598 -107.152954 75 14902ft 347kts
16-Sep-22 14:46 34.913332 -107.039450 84 13490ft 334kts
16-Sep-22 14:47 34.926113 -106.929272 83 12138ft 323kts
16-Sep-22 14:48 34.938737 -106.821906 82 10778ft 315kts
16-Sep-22 14:49 34.950621 -106.720604 82 10202ft 283kts
16-Sep-22 14:50 34.962354 -106.625366 64 8831ft 285kts
16-Sep-22 14:51 34.992700 -106.548406 61 7937ft 215kts
16-Sep-22 14:52 35.026323 -106.506495 337 6680ft 172kts
16-Sep-22 14:53 35.043928 -106.555214 270 5642ft 167kts
16-Sep-22 14:54 35.044190 -106.595165 269 5329ft 40kts
16-Sep-22 14:55 35.045759 -106.604680 273 5325ft 23kts
16-Sep-22 14:56 35.045962 -106.613449 286 5321ft 23kts

Navigation Log

Ident Type
Flight plan parsing failed, navigation log unavailable